sensor_id;sensor_type;location;lat;lon;timestamp;pressure;altitude;pressure_sealevel;temperature;humidity
67434;BME280;54305;47.950;6.572;2022-08-03T00:06:47;94425.81;;;19.24;62.31
67434;BME280;54305;47.950;6.572;2022-08-03T00:09:12;94420.31;;;19.26;62.24
67434;BME280;54305;47.950;6.572;2022-08-03T00:11:38;94426.38;;;19.20;61.48
67434;BME280;54305;47.950;6.572;2022-08-03T00:14:04;94425.81;;;19.18;61.47
67434;BME280;54305;47.950;6.572;2022-08-03T00:16:30;94418.72;;;19.12;62.81
67434;BME280;54305;47.950;6.572;2022-08-03T00:18:55;94417.13;;;19.11;63.45
67434;BME280;54305;47.950;6.572;2022-08-03T00:21:20;94420.56;;;19.05;62.91
67434;BME280;54305;47.950;6.572;2022-08-03T00:23:46;94414.50;;;19.04;63.16
67434;BME280;54305;47.950;6.572;2022-08-03T00:26:11;94416.31;;;19.04;63.27
67434;BME280;54305;47.950;6.572;2022-08-03T00:28:36;94412.91;;;18.97;63.39
67434;BME280;54305;47.950;6.572;2022-08-03T00:31:02;94410.28;;;18.90;64.16
67434;BME280;54305;47.950;6.572;2022-08-03T00:33:27;94409.28;;;18.91;65.07
67434;BME280;54305;47.950;6.572;2022-08-03T00:35:52;94413.91;;;18.96;65.72
67434;BME280;54305;47.950;6.572;2022-08-03T00:38:18;94407.44;;;18.92;64.49
67434;BME280;54305;47.950;6.572;2022-08-03T00:40:43;94406.25;;;18.88;65.80
67434;BME280;54305;47.950;6.572;2022-08-03T00:43:09;94402.19;;;18.85;65.31
67434;BME280;54305;47.950;6.572;2022-08-03T00:45:36;94406.25;;;18.88;65.10
67434;BME280;54305;47.950;6.572;2022-08-03T00:48:02;94412.28;;;18.95;67.40
67434;BME280;54305;47.950;6.572;2022-08-03T00:50:29;94412.66;;;19.05;66.66
67434;BME280;54305;47.950;6.572;2022-08-03T00:52:57;94410.63;;;19.07;66.53
67434;BME280;54305;47.950;6.572;2022-08-03T00:55:23;94396.41;;;19.08;65.53
67434;BME280;54305;47.950;6.572;2022-08-03T00:57:48;94404.13;;;19.09;65.67
67434;BME280;54305;47.950;6.572;2022-08-03T01:00:15;94402.88;;;19.12;64.32
67434;BME280;54305;47.950;6.572;2022-08-03T01:02:40;94399.28;;;19.00;64.80
67434;BME280;54305;47.950;6.572;2022-08-03T01:05:06;94394.47;;;18.90;64.97
67434;BME280;54305;47.950;6.572;2022-08-03T01:13:03;94398.97;;;18.77;66.56
67434;BME280;54305;47.950;6.572;2022-08-03T01:15:30;94399.41;;;18.74;66.49
67434;BME280;54305;47.950;6.572;2022-08-03T01:18:00;94395.38;;;18.65;68.35
67434;BME280;54305;47.950;6.572;2022-08-03T01:20:31;94387.63;;;18.70;68.01
67434;BME280;54305;47.950;6.572;2022-08-03T01:30:23;94379.50;;;18.78;66.63
67434;BME280;54305;47.950;6.572;2022-08-03T01:32:54;94370.59;;;18.66;67.52
67434;BME280;54305;47.950;6.572;2022-08-03T01:35:25;94376.72;;;18.60;67.43
67434;BME280;54305;47.950;6.572;2022-08-03T01:38:01;94372.28;;;18.54;67.95
67434;BME280;54305;47.950;6.572;2022-08-03T01:40:28;94376.75;;;18.47;67.32
67434;BME280;54305;47.950;6.572;2022-08-03T01:42:55;94386.28;;;18.48;68.02
67434;BME280;54305;47.950;6.572;2022-08-03T01:45:21;94380.81;;;18.43;68.23
67434;BME280;54305;47.950;6.572;2022-08-03T01:47:48;94377.00;;;18.39;67.48
67434;BME280;54305;47.950;6.572;2022-08-03T01:50:14;94375.97;;;18.40;67.10
67434;BME280;54305;47.950;6.572;2022-08-03T01:52:43;94372.09;;;18.49;68.37
67434;BME280;54305;47.950;6.572;2022-08-03T01:55:09;94374.28;;;18.58;68.06
67434;BME280;54305;47.950;6.572;2022-08-03T01:57:37;94376.13;;;18.58;68.46
67434;BME280;54305;47.950;6.572;2022-08-03T02:00:03;94367.22;;;18.52;67.95
67434;BME280;54305;47.950;6.572;2022-08-03T02:02:29;94363.81;;;18.39;67.04
67434;BME280;54305;47.950;6.572;2022-08-03T02:04:56;94362.19;;;18.31;67.21
67434;BME280;54305;47.950;6.572;2022-08-03T02:07:22;94366.63;;;18.31;66.26
67434;BME280;54305;47.950;6.572;2022-08-03T02:09:49;94365.84;;;18.24;67.77
67434;BME280;54305;47.950;6.572;2022-08-03T02:12:15;94361.38;;;18.18;68.44
67434;BME280;54305;47.950;6.572;2022-08-03T02:14:42;94359.78;;;18.17;69.54
67434;BME280;54305;47.950;6.572;2022-08-03T02:17:08;94365.88;;;18.11;68.18
67434;BME280;54305;47.950;6.572;2022-08-03T02:19:33;94366.69;;;18.05;68.72
67434;BME280;54305;47.950;6.572;2022-08-03T02:21:59;94363.25;;;17.98;69.67
67434;BME280;54305;47.950;6.572;2022-08-03T02:24:26;94366.91;;;17.97;68.61
67434;BME280;54305;47.950;6.572;2022-08-03T02:26:52;94367.94;;;18.02;69.10
67434;BME280;54305;47.950;6.572;2022-08-03T02:29:21;94369.16;;;18.00;68.53
67434;BME280;54305;47.950;6.572;2022-08-03T02:31:48;94374.00;;;17.90;70.02
67434;BME280;54305;47.950;6.572;2022-08-03T02:34:15;94365.88;;;17.91;70.03
67434;BME280;54305;47.950;6.572;2022-08-03T02:36:41;94369.34;;;18.05;70.42
67434;BME280;54305;47.950;6.572;2022-08-03T02:39:09;94368.13;;;18.07;69.62
67434;BME280;54305;47.950;6.572;2022-08-03T02:41:36;94364.66;;;18.07;68.61
67434;BME280;54305;47.950;6.572;2022-08-03T02:44:03;94364.44;;;18.15;69.90
67434;BME280;54305;47.950;6.572;2022-08-03T02:46:31;94369.94;;;18.13;69.31
67434;BME280;54305;47.950;6.572;2022-08-03T02:48:58;94368.72;;;18.03;68.66
67434;BME280;54305;47.950;6.572;2022-08-03T02:51:24;94367.94;;;18.02;69.51
67434;BME280;54305;47.950;6.572;2022-08-03T02:53:52;94365.09;;;17.97;70.87
67434;BME280;54305;47.950;6.572;2022-08-03T02:56:19;94361.84;;;18.02;71.90
67434;BME280;54305;47.950;6.572;2022-08-03T02:58:46;94372.38;;;18.08;71.44
67434;BME280;54305;47.950;6.572;2022-08-03T03:01:13;94362.84;;;18.07;69.82
67434;BME280;54305;47.950;6.572;2022-08-03T03:03:39;94365.50;;;18.01;70.47
67434;BME280;54305;47.950;6.572;2022-08-03T03:06:05;94359.41;;;17.94;69.67
67434;BME280;54305;47.950;6.572;2022-08-03T03:08:31;94365.50;;;17.88;69.69
67434;BME280;54305;47.950;6.572;2022-08-03T03:10:59;94362.28;;;17.86;71.03
67434;BME280;54305;47.950;6.572;2022-08-03T03:13:26;94360.22;;;17.88;70.22
67434;BME280;54305;47.950;6.572;2022-08-03T03:15:52;94359.19;;;17.89;70.28
67434;BME280;54305;47.950;6.572;2022-08-03T03:18:18;94363.06;;;17.86;70.46
67434;BME280;54305;47.950;6.572;2022-08-03T03:20:45;94362.66;;;17.83;70.26
67434;BME280;54305;47.950;6.572;2022-08-03T03:23:11;94362.47;;;17.84;71.60
67434;BME280;54305;47.950;6.572;2022-08-03T03:25:37;94362.66;;;17.83;70.89
67434;BME280;54305;47.950;6.572;2022-08-03T03:28:02;94358.63;;;17.87;70.67
67434;BME280;54305;47.950;6.572;2022-08-03T03:30:28;94360.22;;;17.88;70.61
67434;BME280;54305;47.950;6.572;2022-08-03T03:32:54;94356.38;;;17.90;71.13
67434;BME280;54305;47.950;6.572;2022-08-03T03:35:19;94357.78;;;17.93;70.73
67434;BME280;54305;47.950;6.572;2022-08-03T03:37:45;94355.78;;;17.95;71.04
67434;BME280;54305;47.950;6.572;2022-08-03T03:40:10;94362.66;;;18.02;71.21
67434;BME280;54305;47.950;6.572;2022-08-03T03:42:36;94357.97;;;17.98;70.81
67434;BME280;54305;47.950;6.572;2022-08-03T03:45:05;94361.84;;;18.02;70.76
67434;BME280;54305;47.950;6.572;2022-08-03T03:47:32;94361.38;;;18.18;70.59
67434;BME280;54305;47.950;6.572;2022-08-03T03:49:57;94365.44;;;18.40;69.37
67434;BME280;54305;47.950;6.572;2022-08-03T03:52:23;94354.50;;;18.36;68.95
67434;BME280;54305;47.950;6.572;2022-08-03T03:54:48;94356.94;;;18.25;68.74
67434;BME280;54305;47.950;6.572;2022-08-03T03:57:13;94362.22;;;18.18;69.22
67434;BME280;54305;47.950;6.572;2022-08-03T03:59:39;94359.00;;;18.10;69.24
67434;BME280;54305;47.950;6.572;2022-08-03T04:02:08;94349.25;;;18.04;69.48
67434;BME280;54305;47.950;6.572;2022-08-03T04:04:34;94350.91;;;17.98;69.39
67434;BME280;54305;47.950;6.572;2022-08-03T04:07:17;94362.25;;;17.92;69.36
67434;BME280;54305;47.950;6.572;2022-08-03T04:10:02;94356.56;;;17.89;69.58
67434;BME280;54305;47.950;6.572;2022-08-03T04:12:46;94353.34;;;17.87;69.69
67434;BME280;54305;47.950;6.572;2022-08-03T04:15:13;94352.13;;;17.96;69.91
67434;BME280;54305;47.950;6.572;2022-08-03T04:17:40;94358.19;;;18.03;70.40
67434;BME280;54305;47.950;6.572;2022-08-03T04:20:06;94359.41;;;18.00;70.15
67434;BME280;54305;47.950;6.572;2022-08-03T04:22:32;94364.28;;;17.97;70.27
67434;BME280;54305;47.950;6.572;2022-08-03T04:25:02;94363.44;;;18.03;70.32
67434;BME280;54305;47.950;6.572;2022-08-03T04:27:34;94368.13;;;18.01;70.31
67434;BME280;54305;47.950;6.572;2022-08-03T04:30:02;94361.44;;;17.92;70.16
67434;BME280;54305;47.950;6.572;2022-08-03T04:32:28;94367.09;;;17.89;70.60
67434;BME280;54305;47.950;6.572;2022-08-03T04:34:54;94365.50;;;17.94;70.12
67434;BME280;54305;47.950;6.572;2022-08-03T04:37:41;94367.31;;;17.94;69.39
67434;BME280;54305;47.950;6.572;2022-08-03T04:40:06;94371.59;;;17.95;70.15
67434;BME280;54305;47.950;6.572;2022-08-03T04:42:34;94365.88;;;18.11;70.09
67434;BME280;54305;47.950;6.572;2022-08-03T04:45:01;94369.72;;;18.15;69.24
67434;BME280;54305;47.950;6.572;2022-08-03T04:47:27;94372.38;;;18.15;69.75
67434;BME280;54305;47.950;6.572;2022-08-03T04:49:53;94371.13;;;18.24;70.08
67434;BME280;54305;47.950;6.572;2022-08-03T04:52:18;94365.44;;;18.27;70.21
67434;BME280;54305;47.950;6.572;2022-08-03T04:54:44;94371.91;;;18.31;70.04
67434;BME280;54305;47.950;6.572;2022-08-03T04:57:10;94368.66;;;18.42;69.01
67434;BME280;54305;47.950;6.572;2022-08-03T04:59:35;94372.66;;;18.57;68.83
67434;BME280;54305;47.950;6.572;2022-08-03T05:02:00;94368.94;;;18.78;67.64
67434;BME280;54305;47.950;6.572;2022-08-03T05:04:26;94372.50;;;18.96;66.90
67434;BME280;54305;47.950;6.572;2022-08-03T05:06:51;94372.81;;;19.13;66.21
67434;BME280;54305;47.950;6.572;2022-08-03T05:09:16;94376.41;;;19.25;66.13
67434;BME280;54305;47.950;6.572;2022-08-03T05:11:42;94382.25;;;19.40;65.30
67434;BME280;54305;47.950;6.572;2022-08-03T05:14:07;94382.34;;;19.51;65.07
67434;BME280;54305;47.950;6.572;2022-08-03T05:16:32;94381.47;;;19.64;65.13
67434;BME280;54305;47.950;6.572;2022-08-03T05:18:57;94385.84;;;19.76;64.95
67434;BME280;54305;47.950;6.572;2022-08-03T05:21:23;94381.25;;;19.90;64.49
67434;BME280;54305;47.950;6.572;2022-08-03T05:23:48;94381.13;;;20.03;64.53
67434;BME280;54305;47.950;6.572;2022-08-03T05:26:13;94378.16;;;20.17;64.29
67434;BME280;54305;47.950;6.572;2022-08-03T05:28:39;94375.19;;;20.32;64.01
67434;BME280;54305;47.950;6.572;2022-08-03T05:31:04;94380.03;;;20.35;64.39
67434;BME280;54305;47.950;6.572;2022-08-03T05:33:29;94375.19;;;20.50;64.41
67434;BME280;54305;47.950;6.572;2022-08-03T05:35:55;94377.41;;;20.53;63.62
67434;BME280;54305;47.950;6.572;2022-08-03T05:38:20;94382.91;;;20.70;64.67
67434;BME280;54305;47.950;6.572;2022-08-03T05:40:46;94376.66;;;20.82;63.83
67434;BME280;54305;47.950;6.572;2022-08-03T05:43:11;94377.69;;;20.99;62.70
67434;BME280;54305;47.950;6.572;2022-08-03T05:45:36;94377.16;;;21.09;61.58
67434;BME280;54305;47.950;6.572;2022-08-03T05:48:03;94377.34;;;21.25;60.97
67434;BME280;54305;47.950;6.572;2022-08-03T05:50:28;94382.00;;;21.41;60.77
67434;BME280;54305;47.950;6.572;2022-08-03T05:52:54;94383.78;;;21.59;61.84
67434;BME280;54305;47.950;6.572;2022-08-03T05:55:21;94390.59;;;21.66;61.30
67434;BME280;54305;47.950;6.572;2022-08-03T05:57:46;94385.81;;;21.86;61.88
67434;BME280;54305;47.950;6.572;2022-08-03T06:00:12;94388.50;;;21.98;61.71
67434;BME280;54305;47.950;6.572;2022-08-03T06:02:37;94386.56;;;22.16;62.31
67434;BME280;54305;47.950;6.572;2022-08-03T06:05:03;94390.72;;;22.35;62.14
67434;BME280;54305;47.950;6.572;2022-08-03T06:07:28;94376.88;;;22.56;62.03
67434;BME280;54305;47.950;6.572;2022-08-03T06:09:54;94383.44;;;22.77;61.28
67434;BME280;54305;47.950;6.572;2022-08-03T06:12:19;94381.31;;;22.90;60.48
67434;BME280;54305;47.950;6.572;2022-08-03T06:14:44;94379.56;;;23.07;60.22
67434;BME280;54305;47.950;6.572;2022-08-03T06:17:10;94382.03;;;23.25;59.60
67434;BME280;54305;47.950;6.572;2022-08-03T06:19:35;94378.75;;;23.46;59.43
67434;BME280;54305;47.950;6.572;2022-08-03T06:22:00;94378.91;;;23.56;57.16
67434;BME280;54305;47.950;6.572;2022-08-03T06:24:25;94377.50;;;23.65;56.02
67434;BME280;54305;47.950;6.572;2022-08-03T06:26:51;94382.00;;;23.81;55.53
67434;BME280;54305;47.950;6.572;2022-08-03T06:29:16;94378.25;;;23.94;55.37
67434;BME280;54305;47.950;6.572;2022-08-03T06:31:41;94380.94;;;24.10;53.11
67434;BME280;54305;47.950;6.572;2022-08-03T06:34:07;94381.16;;;24.25;53.44
67434;BME280;54305;47.950;6.572;2022-08-03T06:36:32;94380.16;;;24.48;53.69
67434;BME280;54305;47.950;6.572;2022-08-03T06:38:58;94387.75;;;24.72;52.18
67434;BME280;54305;47.950;6.572;2022-08-03T06:41:24;94375.34;;;24.83;50.27
67434;BME280;54305;47.950;6.572;2022-08-03T06:43:49;94371.78;;;24.94;48.10
67434;BME280;54305;47.950;6.572;2022-08-03T06:46:14;94374.38;;;25.10;48.91
67434;BME280;54305;47.950;6.572;2022-08-03T06:48:40;94385.03;;;25.10;47.57
67434;BME280;54305;47.950;6.572;2022-08-03T06:51:05;94380.38;;;25.22;47.33
67434;BME280;54305;47.950;6.572;2022-08-03T06:53:31;94383.66;;;25.29;46.50
67434;BME280;54305;47.950;6.572;2022-08-03T06:55:56;94381.13;;;25.39;46.97
67434;BME280;54305;47.950;6.572;2022-08-03T06:58:21;94377.91;;;25.37;47.79
67434;BME280;54305;47.950;6.572;2022-08-03T07:00:47;94381.78;;;25.51;46.24
67434;BME280;54305;47.950;6.572;2022-08-03T07:03:13;94376.00;;;25.59;46.73
67434;BME280;54305;47.950;6.572;2022-08-03T07:05:39;94383.63;;;25.77;46.08
67434;BME280;54305;47.950;6.572;2022-08-03T07:08:05;94385.28;;;25.78;46.71
67434;BME280;54305;47.950;6.572;2022-08-03T07:10:31;94375.31;;;25.95;46.44
67434;BME280;54305;47.950;6.572;2022-08-03T07:12:57;94374.97;;;26.18;46.35
67434;BME280;54305;47.950;6.572;2022-08-03T07:15:23;94379.56;;;26.28;45.47
67434;BME280;54305;47.950;6.572;2022-08-03T07:17:48;94371.44;;;26.49;45.80
67434;BME280;54305;47.950;6.572;2022-08-03T07:20:13;94376.94;;;26.69;46.51
67434;BME280;54305;47.950;6.572;2022-08-03T07:22:39;94381.78;;;26.72;45.32
67434;BME280;54305;47.950;6.572;2022-08-03T07:25:04;94387.63;;;26.69;44.54
67434;BME280;54305;47.950;6.572;2022-08-03T07:27:30;94388.22;;;26.76;43.67
67434;BME280;54305;47.950;6.572;2022-08-03T07:29:56;94393.16;;;26.99;43.50
67434;BME280;54305;47.950;6.572;2022-08-03T07:32:21;94390.47;;;26.94;42.30
67434;BME280;54305;47.950;6.572;2022-08-03T07:34:47;94393.63;;;26.91;42.76
67434;BME280;54305;47.950;6.572;2022-08-03T07:37:12;94391.63;;;27.13;42.08
67434;BME280;54305;47.950;6.572;2022-08-03T07:39:37;94389.47;;;27.15;42.03
67434;BME280;54305;47.950;6.572;2022-08-03T07:42:03;94392.25;;;26.84;41.40
67434;BME280;54305;47.950;6.572;2022-08-03T07:44:28;94392.41;;;26.62;42.56
67434;BME280;54305;47.950;6.572;2022-08-03T07:46:53;94395.56;;;26.59;42.74
67434;BME280;54305;47.950;6.572;2022-08-03T07:49:19;94401.25;;;26.68;43.96
67434;BME280;54305;47.950;6.572;2022-08-03T07:51:44;94397.38;;;26.90;43.71
67434;BME280;54305;47.950;6.572;2022-08-03T07:54:10;94398.63;;;26.73;43.39
67434;BME280;54305;47.950;6.572;2022-08-03T07:56:36;94395.50;;;26.54;44.12
67434;BME280;54305;47.950;6.572;2022-08-03T07:59:01;94388.22;;;26.76;44.17
67434;BME280;54305;47.950;6.572;2022-08-03T08:01:27;94389.44;;;27.10;43.71
67434;BME280;54305;47.950;6.572;2022-08-03T08:03:52;94385.81;;;27.31;42.67
67434;BME280;54305;47.950;6.572;2022-08-03T08:06:17;94384.84;;;27.57;42.34
67434;BME280;54305;47.950;6.572;2022-08-03T08:08:43;94385.38;;;27.69;42.50
67434;BME280;54305;47.950;6.572;2022-08-03T08:11:08;94382.19;;;27.77;42.08
67434;BME280;54305;47.950;6.572;2022-08-03T08:13:34;94386.53;;;27.98;41.60
67434;BME280;54305;47.950;6.572;2022-08-03T08:15:59;94380.66;;;27.86;39.86
67434;BME280;54305;47.950;6.572;2022-08-03T08:18:24;94376.38;;;27.95;41.41
67434;BME280;54305;47.950;6.572;2022-08-03T08:20:50;94381.75;;;28.30;41.01
67434;BME280;54305;47.950;6.572;2022-08-03T08:23:15;94378.53;;;28.43;39.54
67434;BME280;54305;47.950;6.572;2022-08-03T08:25:47;94371.84;;;28.51;39.23
67434;BME280;54305;47.950;6.572;2022-08-03T08:28:12;94384.41;;;28.60;40.09
67434;BME280;54305;47.950;6.572;2022-08-03T08:30:38;94388.66;;;28.76;38.55
67434;BME280;54305;47.950;6.572;2022-08-03T08:33:03;94386.81;;;28.72;37.86
67434;BME280;54305;47.950;6.572;2022-08-03T08:35:28;94383.88;;;28.43;39.21
67434;BME280;54305;47.950;6.572;2022-08-03T08:37:54;94381.75;;;28.05;39.62
67434;BME280;54305;47.950;6.572;2022-08-03T08:40:19;94382.81;;;28.29;40.47
67434;BME280;54305;47.950;6.572;2022-08-03T08:42:45;94380.66;;;28.61;39.59
67434;BME280;54305;47.950;6.572;2022-08-03T08:45:11;94380.34;;;28.98;38.80
67434;BME280;54305;47.950;6.572;2022-08-03T08:47:39;94374.59;;;29.29;37.84
67434;BME280;54305;47.950;6.572;2022-08-03T08:50:06;94385.97;;;29.65;37.41
67434;BME280;54305;47.950;6.572;2022-08-03T08:52:32;94372.69;;;29.83;36.78
67434;BME280;54305;47.950;6.572;2022-08-03T08:54:58;94381.00;;;29.38;37.74
67434;BME280;54305;47.950;6.572;2022-08-03T08:57:25;94384.34;;;28.90;38.41
67434;BME280;54305;47.950;6.572;2022-08-03T08:59:52;94379.81;;;28.81;38.04
67434;BME280;54305;47.950;6.572;2022-08-03T09:02:20;94385.94;;;29.01;38.70
67434;BME280;54305;47.950;6.572;2022-08-03T09:04:46;94381.53;;;29.40;38.62
67434;BME280;54305;47.950;6.572;2022-08-03T09:07:12;94388.16;;;29.63;37.41
67434;BME280;54305;47.950;6.572;2022-08-03T09:09:38;94388.81;;;29.83;38.30
67434;BME280;54305;47.950;6.572;2022-08-03T09:12:03;94378.06;;;29.88;36.87
67434;BME280;54305;47.950;6.572;2022-08-03T09:14:29;94381.38;;;29.75;37.55
67434;BME280;54305;47.950;6.572;2022-08-03T09:16:58;94396.19;;;28.74;38.80
67434;BME280;54305;47.950;6.572;2022-08-03T09:19:27;94388.16;;;28.64;39.58
67434;BME280;54305;47.950;6.572;2022-08-03T09:22:06;94382.03;;;28.39;39.71
67434;BME280;54305;47.950;6.572;2022-08-03T09:24:32;94394.00;;;28.86;39.58
67434;BME280;54305;47.950;6.572;2022-08-03T09:26:57;94386.00;;;28.71;39.42
67434;BME280;54305;47.950;6.572;2022-08-03T09:29:23;94386.16;;;29.25;37.69
67434;BME280;54305;47.950;6.572;2022-08-03T09:31:49;94382.66;;;29.19;38.26
67434;BME280;54305;47.950;6.572;2022-08-03T09:34:24;94390.28;;;28.77;38.53
67434;BME280;54305;47.950;6.572;2022-08-03T09:36:49;94386.88;;;29.45;38.74
67434;BME280;54305;47.950;6.572;2022-08-03T09:39:15;94391.38;;;28.66;38.45
67434;BME280;54305;47.950;6.572;2022-08-03T09:41:42;94392.06;;;29.17;38.75
67434;BME280;54305;47.950;6.572;2022-08-03T09:44:11;94382.72;;;29.09;38.70
67434;BME280;54305;47.950;6.572;2022-08-03T09:46:49;94380.22;;;29.28;37.18
67434;BME280;54305;47.950;6.572;2022-08-03T09:49:14;94380.06;;;28.84;37.83
67434;BME280;54305;47.950;6.572;2022-08-03T09:51:40;94382.97;;;29.13;37.40
67434;BME280;54305;47.950;6.572;2022-08-03T09:54:05;94381.50;;;29.45;37.08
67434;BME280;54305;47.950;6.572;2022-08-03T09:56:44;94384.94;;;29.51;37.23
67434;BME280;54305;47.950;6.572;2022-08-03T09:59:10;94382.38;;;29.26;37.03
67434;BME280;54305;47.950;6.572;2022-08-03T10:01:36;94380.63;;;30.08;36.51
67434;BME280;54305;47.950;6.572;2022-08-03T10:04:03;94381.69;;;30.74;35.36
67434;BME280;54305;47.950;6.572;2022-08-03T10:06:29;94379.00;;;31.26;33.69
67434;BME280;54305;47.950;6.572;2022-08-03T10:09:11;94373.78;;;31.11;33.53
67434;BME280;54305;47.950;6.572;2022-08-03T10:11:37;94376.16;;;30.89;34.14
67434;BME280;54305;47.950;6.572;2022-08-03T10:14:04;94371.41;;;31.33;34.06
67434;BME280;54305;47.950;6.572;2022-08-03T10:16:34;94369.41;;;31.63;32.45
67434;BME280;54305;47.950;6.572;2022-08-03T10:19:03;94378.34;;;31.58;32.81
67434;BME280;54305;47.950;6.572;2022-08-03T10:21:31;94367.94;;;31.04;33.54
67434;BME280;54305;47.950;6.572;2022-08-03T10:23:58;94373.19;;;30.67;34.15
67434;BME280;54305;47.950;6.572;2022-08-03T10:26:27;94366.00;;;30.24;35.14
67434;BME280;54305;47.950;6.572;2022-08-03T10:28:55;94362.50;;;29.85;35.02
67434;BME280;54305;47.950;6.572;2022-08-03T10:31:23;94367.47;;;29.63;36.65
67434;BME280;54305;47.950;6.572;2022-08-03T10:33:49;94364.03;;;29.48;36.51
67434;BME280;54305;47.950;6.572;2022-08-03T10:36:15;94365.41;;;29.45;37.28
67434;BME280;54305;47.950;6.572;2022-08-03T10:38:47;94360.97;;;30.13;35.63
67434;BME280;54305;47.950;6.572;2022-08-03T10:41:18;94353.97;;;30.79;34.60
67434;BME280;54305;47.950;6.572;2022-08-03T10:43:45;94355.19;;;31.38;34.96
67434;BME280;54305;47.950;6.572;2022-08-03T10:46:13;94347.13;;;30.58;35.04
67434;BME280;54305;47.950;6.572;2022-08-03T10:48:42;94346.44;;;31.04;35.13
67434;BME280;54305;47.950;6.572;2022-08-03T10:51:07;94347.41;;;29.94;35.63
67434;BME280;54305;47.950;6.572;2022-08-03T10:53:40;94346.38;;;29.85;36.33
67434;BME280;54305;47.950;6.572;2022-08-03T10:59:11;94349.97;;;31.00;35.62
67434;BME280;54305;47.950;6.572;2022-08-03T11:01:50;94337.31;;;31.24;34.90
67434;BME280;54305;47.950;6.572;2022-08-03T11:04:16;94337.75;;;30.55;34.52
67434;BME280;54305;47.950;6.572;2022-08-03T11:06:43;94336.84;;;31.40;34.65
67434;BME280;54305;47.950;6.572;2022-08-03T11:11:34;94332.72;;;30.20;34.31
67434;BME280;54305;47.950;6.572;2022-08-03T11:16:29;94336.00;;;31.21;33.31
67434;BME280;54305;47.950;6.572;2022-08-03T11:18:55;94329.47;;;30.80;33.21
67434;BME280;54305;47.950;6.572;2022-08-03T11:21:24;94322.09;;;30.62;33.71
67434;BME280;54305;47.950;6.572;2022-08-03T11:24:56;94321.09;;;31.29;32.42
67434;BME280;54305;47.950;6.572;2022-08-03T11:33:06;94331.97;;;31.42;31.05
67434;BME280;54305;47.950;6.572;2022-08-03T11:35:15;94330.84;;;31.25;31.14
67434;BME280;54305;47.950;6.572;2022-08-03T11:40:34;94323.94;;;31.80;31.08
67434;BME280;54305;47.950;6.572;2022-08-03T11:43:04;94318.31;;;31.95;28.58
67434;BME280;54305;47.950;6.572;2022-08-03T11:45:39;94316.16;;;32.61;31.22
67434;BME280;54305;47.950;6.572;2022-08-03T11:48:19;94304.22;;;32.94;27.13
67434;BME280;54305;47.950;6.572;2022-08-03T11:50:45;94309.22;;;33.14;27.41
67434;BME280;54305;47.950;6.572;2022-08-03T11:53:14;94321.72;;;33.37;27.56
67434;BME280;54305;47.950;6.572;2022-08-03T11:55:41;94320.44;;;32.62;27.14
67434;BME280;54305;47.950;6.572;2022-08-03T11:58:29;94312.34;;;32.62;27.79
67434;BME280;54305;47.950;6.572;2022-08-03T12:01:11;94301.50;;;33.21;27.40
67434;BME280;54305;47.950;6.572;2022-08-03T12:03:41;94313.44;;;32.61;26.76
67434;BME280;54305;47.950;6.572;2022-08-03T12:06:10;94305.13;;;32.12;27.91
67434;BME280;54305;47.950;6.572;2022-08-03T12:08:35;94311.97;;;31.86;27.13
67434;BME280;54305;47.950;6.572;2022-08-03T12:11:02;94298.41;;;32.09;28.34
67434;BME280;54305;47.950;6.572;2022-08-03T12:16:04;94307.47;;;31.81;28.11
67434;BME280;54305;47.950;6.572;2022-08-03T12:18:29;94293.41;;;31.65;28.52
67434;BME280;54305;47.950;6.572;2022-08-03T12:21:02;94301.81;;;32.15;26.55
67434;BME280;54305;47.950;6.572;2022-08-03T12:23:28;94297.56;;;31.95;27.47
67434;BME280;54305;47.950;6.572;2022-08-03T12:25:59;94301.34;;;32.45;25.52
67434;BME280;54305;47.950;6.572;2022-08-03T12:28:25;94291.81;;;32.93;26.57
67434;BME280;54305;47.950;6.572;2022-08-03T12:30:50;94303.97;;;31.81;26.60
67434;BME280;54305;47.950;6.572;2022-08-03T12:35:49;94300.84;;;31.73;26.62
67434;BME280;54305;47.950;6.572;2022-08-03T12:38:18;94293.81;;;32.28;27.21
67434;BME280;54305;47.950;6.572;2022-08-03T12:40:45;94291.22;;;33.23;25.32
67434;BME280;54305;47.950;6.572;2022-08-03T12:43:12;94293.31;;;32.40;25.56
67434;BME280;54305;47.950;6.572;2022-08-03T12:45:40;94291.72;;;31.69;26.40
67434;BME280;54305;47.950;6.572;2022-08-03T12:48:08;94284.72;;;32.06;26.33
67434;BME280;54305;47.950;6.572;2022-08-03T12:50:34;94296.34;;;32.52;26.12
67434;BME280;54305;47.950;6.572;2022-08-03T12:53:01;94289.63;;;32.36;25.62
67434;BME280;54305;47.950;6.572;2022-08-03T12:55:28;94290.97;;;32.52;26.73
67434;BME280;54305;47.950;6.572;2022-08-03T12:58:00;94289.00;;;32.98;26.12
67434;BME280;54305;47.950;6.572;2022-08-03T13:00:26;94298.63;;;33.04;24.00
67434;BME280;54305;47.950;6.572;2022-08-03T13:03:06;94283.81;;;33.01;25.31
67434;BME280;54305;47.950;6.572;2022-08-03T13:05:41;94289.59;;;33.49;24.45
67434;BME280;54305;47.950;6.572;2022-08-03T13:08:20;94287.16;;;33.61;24.24
67434;BME280;54305;47.950;6.572;2022-08-03T13:10:46;94286.22;;;33.03;24.55
67434;BME280;54305;47.950;6.572;2022-08-03T13:13:14;94291.81;;;33.47;25.18
67434;BME280;54305;47.950;6.572;2022-08-03T13:15:41;94283.19;;;33.58;23.46
67434;BME280;54305;47.950;6.572;2022-08-03T13:18:07;94283.66;;;33.96;22.70
67434;BME280;54305;47.950;6.572;2022-08-03T13:20:33;94287.03;;;34.76;23.35
67434;BME280;54305;47.950;6.572;2022-08-03T13:22:58;94282.47;;;33.53;22.90
67434;BME280;54305;47.950;6.572;2022-08-03T13:25:23;94293.22;;;33.31;23.35
67434;BME280;54305;47.950;6.572;2022-08-03T13:27:49;94282.81;;;33.11;24.09
67434;BME280;54305;47.950;6.572;2022-08-03T13:30:14;94278.22;;;32.98;23.56
67434;BME280;54305;47.950;6.572;2022-08-03T13:32:40;94285.09;;;32.77;24.12
67434;BME280;54305;47.950;6.572;2022-08-03T13:35:06;94268.81;;;33.09;24.08
67434;BME280;54305;47.950;6.572;2022-08-03T13:37:35;94278.31;;;33.20;23.55
67434;BME280;54305;47.950;6.572;2022-08-03T13:40:01;94266.09;;;33.22;23.90